sensor_id;sensor_type;location;lat;lon;timestamp;temperature;humidity
29479;DHT22;16437;41.836;23.480;2022-09-06T00:04:45;24.00;48.20
29479;DHT22;16437;41.836;23.480;2022-09-06T00:10:12;24.00;48.20
29479;DHT22;16437;41.836;23.480;2022-09-06T00:15:39;24.00;48.00
29479;DHT22;16437;41.836;23.480;2022-09-06T00:21:15;23.90;48.00
29479;DHT22;16437;41.836;23.480;2022-09-06T00:26:41;23.90;48.00
29479;DHT22;16437;41.836;23.480;2022-09-06T00:32:07;23.80;48.10
29479;DHT22;16437;41.836;23.480;2022-09-06T00:37:34;23.80;48.20
29479;DHT22;16437;41.836;23.480;2022-09-06T00:43:00;23.80;48.20
29479;DHT22;16437;41.836;23.480;2022-09-06T00:48:27;23.80;48.50
29479;DHT22;16437;41.836;23.480;2022-09-06T00:53:54;23.70;48.60
29479;DHT22;16437;41.836;23.480;2022-09-06T00:59:23;23.70;48.70
29479;DHT22;16437;41.836;23.480;2022-09-06T01:04:50;23.70;48.80
29479;DHT22;16437;41.836;23.480;2022-09-06T01:10:35;23.80;48.80
29479;DHT22;16437;41.836;23.480;2022-09-06T01:16:04;23.70;48.90
29479;DHT22;16437;41.836;23.480;2022-09-06T01:38:17;23.60;49.00
29479;DHT22;16437;41.836;23.480;2022-09-06T01:43:46;23.60;49.10
29479;DHT22;16437;41.836;23.480;2022-09-06T01:49:32;23.60;49.00
29479;DHT22;16437;41.836;23.480;2022-09-06T01:55:01;23.60;49.00
29479;DHT22;16437;41.836;23.480;2022-09-06T02:00:25;23.60;49.00
29479;DHT22;16437;41.836;23.480;2022-09-06T02:05:54;23.60;49.10
29479;DHT22;16437;41.836;23.480;2022-09-06T02:11:23;23.60;49.10
29479;DHT22;16437;41.836;23.480;2022-09-06T02:16:51;23.50;49.00
29479;DHT22;16437;41.836;23.480;2022-09-06T02:22:21;23.60;49.10
29479;DHT22;16437;41.836;23.480;2022-09-06T02:27:48;23.50;49.10
29479;DHT22;16437;41.836;23.480;2022-09-06T02:33:20;23.50;49.10
29479;DHT22;16437;41.836;23.480;2022-09-06T02:38:47;23.50;49.10
29479;DHT22;16437;41.836;23.480;2022-09-06T02:44:14;23.50;49.10
29479;DHT22;16437;41.836;23.480;2022-09-06T02:49:40;23.50;49.10
29479;DHT22;16437;41.836;23.480;2022-09-06T02:55:07;23.50;49.10
29479;DHT22;16437;41.836;23.480;2022-09-06T03:00:34;23.40;49.10
29479;DHT22;16437;41.836;23.480;2022-09-06T03:06:01;23.40;49.00
29479;DHT22;16437;41.836;23.480;2022-09-06T03:11:28;23.40;49.00
29479;DHT22;16437;41.836;23.480;2022-09-06T03:16:55;23.40;49.10
29479;DHT22;16437;41.836;23.480;2022-09-06T03:22:21;23.40;49.00
29479;DHT22;16437;41.836;23.480;2022-09-06T03:27:48;23.40;49.10
29479;DHT22;16437;41.836;23.480;2022-09-06T03:33:15;23.40;49.10
29479;DHT22;16437;41.836;23.480;2022-09-06T03:38:41;23.40;49.10
29479;DHT22;16437;41.836;23.480;2022-09-06T03:44:08;23.40;49.10
29479;DHT22;16437;41.836;23.480;2022-09-06T03:49:34;23.40;49.10
29479;DHT22;16437;41.836;23.480;2022-09-06T03:55:01;23.40;49.10
29479;DHT22;16437;41.836;23.480;2022-09-06T04:00:28;23.40;49.10
29479;DHT22;16437;41.836;23.480;2022-09-06T04:05:54;23.30;49.10
29479;DHT22;16437;41.836;23.480;2022-09-06T04:11:20;23.30;49.10
29479;DHT22;16437;41.836;23.480;2022-09-06T04:16:47;23.30;49.00
29479;DHT22;16437;41.836;23.480;2022-09-06T04:22:14;23.30;49.00
29479;DHT22;16437;41.836;23.480;2022-09-06T04:27:40;23.30;49.00
29479;DHT22;16437;41.836;23.480;2022-09-06T04:33:07;23.30;49.00
29479;DHT22;16437;41.836;23.480;2022-09-06T04:38:39;23.30;49.00
29479;DHT22;16437;41.836;23.480;2022-09-06T04:44:06;23.30;49.00
29479;DHT22;16437;41.836;23.480;2022-09-06T04:49:32;23.30;49.00
29479;DHT22;16437;41.836;23.480;2022-09-06T04:54:58;23.20;49.00
29479;DHT22;16437;41.836;23.480;2022-09-06T05:00:26;23.30;49.10
29479;DHT22;16437;41.836;23.480;2022-09-06T05:06:02;23.30;49.10
29479;DHT22;16437;41.836;23.480;2022-09-06T05:11:20;23.30;49.20
29479;DHT22;16437;41.836;23.480;2022-09-06T05:16:46;23.30;49.20
29479;DHT22;16437;41.836;23.480;2022-09-06T05:22:14;23.40;49.20
29479;DHT22;16437;41.836;23.480;2022-09-06T05:27:40;23.30;49.20
29479;DHT22;16437;41.836;23.480;2022-09-06T05:33:08;23.30;49.10
29479;DHT22;16437;41.836;23.480;2022-09-06T05:38:34;23.40;49.10
29479;DHT22;16437;41.836;23.480;2022-09-06T05:44:00;23.30;49.00
29479;DHT22;16437;41.836;23.480;2022-09-06T05:49:31;23.40;49.20
29479;DHT22;16437;41.836;23.480;2022-09-06T05:54:58;23.40;49.40
29479;DHT22;16437;41.836;23.480;2022-09-06T06:00:24;23.40;49.40
29479;DHT22;16437;41.836;23.480;2022-09-06T06:05:51;23.30;49.60
29479;DHT22;16437;41.836;23.480;2022-09-06T06:11:17;23.30;49.70
29479;DHT22;16437;41.836;23.480;2022-09-06T06:16:44;23.40;49.80
29479;DHT22;16437;41.836;23.480;2022-09-06T06:22:11;23.40;49.80
29479;DHT22;16437;41.836;23.480;2022-09-06T06:27:37;23.30;49.90
29479;DHT22;16437;41.836;23.480;2022-09-06T06:33:03;23.40;50.10
29479;DHT22;16437;41.836;23.480;2022-09-06T06:38:37;23.40;50.20
29479;DHT22;16437;41.836;23.480;2022-09-06T06:44:05;23.30;50.50
29479;DHT22;16437;41.836;23.480;2022-09-06T06:49:31;23.30;50.60
29479;DHT22;16437;41.836;23.480;2022-09-06T06:54:58;23.30;50.70
29479;DHT22;16437;41.836;23.480;2022-09-06T07:00:24;23.40;50.80
29479;DHT22;16437;41.836;23.480;2022-09-06T07:05:51;23.30;50.80
29479;DHT22;16437;41.836;23.480;2022-09-06T07:11:17;23.40;50.80
29479;DHT22;16437;41.836;23.480;2022-09-06T07:16:44;23.30;50.70
29479;DHT22;16437;41.836;23.480;2022-09-06T07:22:11;23.30;50.70
29479;DHT22;16437;41.836;23.480;2022-09-06T07:27:38;23.30;50.80
29479;DHT22;16437;41.836;23.480;2022-09-06T07:33:05;23.30;50.90
29479;DHT22;16437;41.836;23.480;2022-09-06T07:38:33;23.40;51.00
29479;DHT22;16437;41.836;23.480;2022-09-06T07:44:00;23.40;51.10
29479;DHT22;16437;41.836;23.480;2022-09-06T07:49:26;23.40;51.20
29479;DHT22;16437;41.836;23.480;2022-09-06T07:54:54;23.40;51.30
29479;DHT22;16437;41.836;23.480;2022-09-06T08:00:21;23.40;51.30
29479;DHT22;16437;41.836;23.480;2022-09-06T08:05:50;23.40;51.30
29479;DHT22;16437;41.836;23.480;2022-09-06T08:11:17;23.50;51.30
29479;DHT22;16437;41.836;23.480;2022-09-06T08:16:44;23.50;51.20
29479;DHT22;16437;41.836;23.480;2022-09-06T08:22:11;23.50;51.30
29479;DHT22;16437;41.836;23.480;2022-09-06T08:27:37;23.50;51.30
29479;DHT22;16437;41.836;23.480;2022-09-06T08:33:04;23.50;51.20
29479;DHT22;16437;41.836;23.480;2022-09-06T08:38:31;23.60;51.10
29479;DHT22;16437;41.836;23.480;2022-09-06T08:44:04;23.60;51.00
29479;DHT22;16437;41.836;23.480;2022-09-06T08:49:33;23.60;50.90
29479;DHT22;16437;41.836;23.480;2022-09-06T09:00:38;23.60;50.60
29479;DHT22;16437;41.836;23.480;2022-09-06T09:06:07;23.60;50.50
29479;DHT22;16437;41.836;23.480;2022-09-06T09:11:34;23.60;50.30
29479;DHT22;16437;41.836;23.480;2022-09-06T09:17:04;23.60;50.30
29479;DHT22;16437;41.836;23.480;2022-09-06T09:22:31;23.70;50.30
29479;DHT22;16437;41.836;23.480;2022-09-06T09:27:58;23.70;50.30
29479;DHT22;16437;41.836;23.480;2022-09-06T09:33:28;23.70;50.30
29479;DHT22;16437;41.836;23.480;2022-09-06T09:38:55;23.70;50.40
29479;DHT22;16437;41.836;23.480;2022-09-06T09:44:23;23.70;50.70
29479;DHT22;16437;41.836;23.480;2022-09-06T09:49:51;23.70;50.70
29479;DHT22;16437;41.836;23.480;2022-09-06T09:55:25;23.80;50.80
29479;DHT22;16437;41.836;23.480;2022-09-06T10:01:24;23.80;50.80
29479;DHT22;16437;41.836;23.480;2022-09-06T10:06:47;23.80;50.90
29479;DHT22;16437;41.836;23.480;2022-09-06T10:12:26;23.80;50.90
29479;DHT22;16437;41.836;23.480;2022-09-06T10:17:50;23.80;50.90
29479;DHT22;16437;41.836;23.480;2022-09-06T10:23:23;23.80;50.90
29479;DHT22;16437;41.836;23.480;2022-09-06T10:28:52;23.90;50.90
29479;DHT22;16437;41.836;23.480;2022-09-06T10:40:32;23.80;51.00
29479;DHT22;16437;41.836;23.480;2022-09-06T10:46:03;23.90;51.10
29479;DHT22;16437;41.836;23.480;2022-09-06T10:51:37;23.80;51.10
29479;DHT22;16437;41.836;23.480;2022-09-06T10:57:20;23.90;51.10
29479;DHT22;16437;41.836;23.480;2022-09-06T11:08:57;23.90;51.20
29479;DHT22;16437;41.836;23.480;2022-09-06T11:14:24;24.00;51.10
29479;DHT22;16437;41.836;23.480;2022-09-06T11:26:04;24.10;51.20
29479;DHT22;16437;41.836;23.480;2022-09-06T11:31:49;24.20;51.10
29479;DHT22;16437;41.836;23.480;2022-09-06T11:37:24;24.20;51.10
29479;DHT22;16437;41.836;23.480;2022-09-06T11:54:00;24.30;50.80
29479;DHT22;16437;41.836;23.480;2022-09-06T12:05:16;24.40;50.70
29479;DHT22;16437;41.836;23.480;2022-09-06T12:16:25;24.50;50.70
29479;DHT22;16437;41.836;23.480;2022-09-06T12:21:52;24.60;50.70
29479;DHT22;16437;41.836;23.480;2022-09-06T12:27:21;24.60;50.70
29479;DHT22;16437;41.836;23.480;2022-09-06T12:32:49;24.60;50.70
29479;DHT22;16437;41.836;23.480;2022-09-06T12:38:21;24.60;50.70
29479;DHT22;16437;41.836;23.480;2022-09-06T12:43:47;24.60;50.60
29479;DHT22;16437;41.836;23.480;2022-09-06T12:49:19;24.60;50.60
29479;DHT22;16437;41.836;23.480;2022-09-06T12:54:48;24.60;50.70
29479;DHT22;16437;41.836;23.480;2022-09-06T13:00:15;24.60;50.80
29479;DHT22;16437;41.836;23.480;2022-09-06T13:05:43;24.60;50.90
29479;DHT22;16437;41.836;23.480;2022-09-06T13:11:12;24.60;51.00
29479;DHT22;16437;41.836;23.480;2022-09-06T13:16:45;24.60;51.20
29479;DHT22;16437;41.836;23.480;2022-09-06T13:22:35;24.60;51.20
29479;DHT22;16437;41.836;23.480;2022-09-06T13:27:49;24.60;51.30
29479;DHT22;16437;41.836;23.480;2022-09-06T13:33:24;24.60;51.20
29479;DHT22;16437;41.836;23.480;2022-09-06T13:38:51;24.60;51.20
29479;DHT22;16437;41.836;23.480;2022-09-06T13:44:25;24.60;51.20
29479;DHT22;16437;41.836;23.480;2022-09-06T13:49:47;24.60;51.10
29479;DHT22;16437;41.836;23.480;2022-09-06T13:55:15;24.60;51.00
29479;DHT22;16437;41.836;23.480;2022-09-06T14:00:44;24.80;50.90
29479;DHT22;16437;41.836;23.480;2022-09-06T14:06:11;24.70;50.70
29479;DHT22;16437;41.836;23.480;2022-09-06T14:11:37;24.60;50.60
29479;DHT22;16437;41.836;23.480;2022-09-06T14:17:04;24.60;50.60
29479;DHT22;16437;41.836;23.480;2022-09-06T14:22:30;24.60;50.60
29479;DHT22;16437;41.836;23.480;2022-09-06T14:27:57;24.60;50.60
29479;DHT22;16437;41.836;23.480;2022-09-06T14:33:25;24.60;50.70
29479;DHT22;16437;41.836;23.480;2022-09-06T14:38:53;24.60;50.70
29479;DHT22;16437;41.836;23.480;2022-09-06T14:44:19;24.60;50.80
29479;DHT22;16437;41.836;23.480;2022-09-06T14:49:46;24.50;50.80
29479;DHT22;16437;41.836;23.480;2022-09-06T14:55:12;24.60;50.80
29479;DHT22;16437;41.836;23.480;2022-09-06T15:00:39;24.60;50.70
29479;DHT22;16437;41.836;23.480;2022-09-06T15:06:06;24.60;50.80
29479;DHT22;16437;41.836;23.480;2022-09-06T15:11:35;24.60;50.70
29479;DHT22;16437;41.836;23.480;2022-09-06T15:17:02;24.50;50.70
29479;DHT22;16437;41.836;23.480;2022-09-06T15:22:30;24.50;50.80
29479;DHT22;16437;41.836;23.480;2022-09-06T15:27:58;24.50;50.80
29479;DHT22;16437;41.836;23.480;2022-09-06T15:33:27;24.50;50.80
29479;DHT22;16437;41.836;23.480;2022-09-06T15:38:52;24.50;50.90
29479;DHT22;16437;41.836;23.480;2022-09-06T15:44:19;24.50;50.90
29479;DHT22;16437;41.836;23.480;2022-09-06T15:49:46;24.50;51.00
29479;DHT22;16437;41.836;23.480;2022-09-06T15:55:13;24.50;51.00
29479;DHT22;16437;41.836;23.480;2022-09-06T16:06:40;24.50;51.10
29479;DHT22;16437;41.836;23.480;2022-09-06T16:12:07;24.40;51.10
29479;DHT22;16437;41.836;23.480;2022-09-06T16:17:34;24.40;51.20
29479;DHT22;16437;41.836;23.480;2022-09-06T16:23:01;24.40;51.20
29479;DHT22;16437;41.836;23.480;2022-09-06T16:28:29;24.40;51.30
29479;DHT22;16437;41.836;23.480;2022-09-06T16:33:56;24.40;51.30
29479;DHT22;16437;41.836;23.480;2022-09-06T16:39:23;24.40;51.20
29479;DHT22;16437;41.836;23.480;2022-09-06T16:44:49;24.40;51.20
29479;DHT22;16437;41.836;23.480;2022-09-06T16:50:17;24.40;51.10
29479;DHT22;16437;41.836;23.480;2022-09-06T16:55:44;24.40;51.10
29479;DHT22;16437;41.836;23.480;2022-09-06T17:01:10;24.40;51.00
29479;DHT22;16437;41.836;23.480;2022-09-06T17:06:37;24.40;50.90
29479;DHT22;16437;41.836;23.480;2022-09-06T17:12:05;24.40;50.90
29479;DHT22;16437;41.836;23.480;2022-09-06T17:17:32;24.40;50.80
29479;DHT22;16437;41.836;23.480;2022-09-06T17:22:59;24.40;50.70
29479;DHT22;16437;41.836;23.480;2022-09-06T17:28:26;24.40;50.60
29479;DHT22;16437;41.836;23.480;2022-09-06T17:33:52;24.40;50.70
29479;DHT22;16437;41.836;23.480;2022-09-06T17:39:19;24.40;50.70
29479;DHT22;16437;41.836;23.480;2022-09-06T17:44:46;24.40;50.60
29479;DHT22;16437;41.836;23.480;2022-09-06T17:50:12;24.30;50.70
29479;DHT22;16437;41.836;23.480;2022-09-06T17:55:40;24.30;50.80
29479;DHT22;16437;41.836;23.480;2022-09-06T18:01:10;24.30;50.80
29479;DHT22;16437;41.836;23.480;2022-09-06T18:06:39;24.30;50.80
29479;DHT22;16437;41.836;23.480;2022-09-06T18:12:06;24.30;50.70
29479;DHT22;16437;41.836;23.480;2022-09-06T18:17:33;24.30;50.70
29479;DHT22;16437;41.836;23.480;2022-09-06T18:22:59;24.30;50.50
29479;DHT22;16437;41.836;23.480;2022-09-06T18:28:27;24.30;50.40
29479;DHT22;16437;41.836;23.480;2022-09-06T18:33:55;24.30;50.40
29479;DHT22;16437;41.836;23.480;2022-09-06T18:39:24;24.30;50.30
29479;DHT22;16437;41.836;23.480;2022-09-06T18:44:50;24.20;50.20
29479;DHT22;16437;41.836;23.480;2022-09-06T18:50:17;24.30;50.10
29479;DHT22;16437;41.836;23.480;2022-09-06T18:55:49;24.30;50.10
29479;DHT22;16437;41.836;23.480;2022-09-06T19:01:16;24.30;50.10
29479;DHT22;16437;41.836;23.480;2022-09-06T19:06:44;24.20;50.10
29479;DHT22;16437;41.836;23.480;2022-09-06T19:12:11;24.20;50.10
29479;DHT22;16437;41.836;23.480;2022-09-06T19:17:38;24.20;50.10
29479;DHT22;16437;41.836;23.480;2022-09-06T19:23:05;24.20;50.10
29479;DHT22;16437;41.836;23.480;2022-09-06T19:28:31;24.20;50.10
29479;DHT22;16437;41.836;23.480;2022-09-06T19:33:58;24.10;50.00
29479;DHT22;16437;41.836;23.480;2022-09-06T19:39:25;24.10;50.00
29479;DHT22;16437;41.836;23.480;2022-09-06T19:44:53;24.10;49.90
29479;DHT22;16437;41.836;23.480;2022-09-06T19:50:20;24.10;49.80
29479;DHT22;16437;41.836;23.480;2022-09-06T19:55:47;24.10;49.80
29479;DHT22;16437;41.836;23.480;2022-09-06T20:01:13;24.10;49.70
29479;DHT22;16437;41.836;23.480;2022-09-06T20:06:42;24.10;49.70
29479;DHT22;16437;41.836;23.480;2022-09-06T20:12:11;24.00;49.60
29479;DHT22;16437;41.836;23.480;2022-09-06T20:17:37;24.00;49.50
29479;DHT22;16437;41.836;23.480;2022-09-06T20:23:04;24.00;49.50
29479;DHT22;16437;41.836;23.480;2022-09-06T20:28:31;24.00;49.40
29479;DHT22;16437;41.836;23.480;2022-09-06T20:33:59;23.90;49.30
29479;DHT22;16437;41.836;23.480;2022-09-06T20:39:26;24.00;49.10
29479;DHT22;16437;41.836;23.480;2022-09-06T20:44:53;23.90;49.00
29479;DHT22;16437;41.836;23.480;2022-09-06T20:50:20;23.90;48.90
29479;DHT22;16437;41.836;23.480;2022-09-06T20:56:00;23.90;48.70
29479;DHT22;16437;41.836;23.480;2022-09-06T21:01:24;23.90;48.60
29479;DHT22;16437;41.836;23.480;2022-09-06T21:06:50;23.80;48.50
29479;DHT22;16437;41.836;23.480;2022-09-06T21:12:18;23.80;48.50
29479;DHT22;16437;41.836;23.480;2022-09-06T21:17:44;23.80;48.50
29479;DHT22;16437;41.836;23.480;2022-09-06T21:23:11;23.80;48.30
29479;DHT22;16437;41.836;23.480;2022-09-06T21:28:38;23.80;48.30
29479;DHT22;16437;41.836;23.480;2022-09-06T21:34:08;23.80;48.30
29479;DHT22;16437;41.836;23.480;2022-09-06T21:39:38;23.70;48.40
29479;DHT22;16437;41.836;23.480;2022-09-06T21:45:05;23.80;48.50
29479;DHT22;16437;41.836;23.480;2022-09-06T21:50:32;23.70;48.50
29479;DHT22;16437;41.836;23.480;2022-09-06T21:56:02;23.70;48.60
29479;DHT22;16437;41.836;23.480;2022-09-06T22:01:31;23.70;48.60
29479;DHT22;16437;41.836;23.480;2022-09-06T22:06:58;23.70;48.50
29479;DHT22;16437;41.836;23.480;2022-09-06T22:12:24;23.70;48.40
29479;DHT22;16437;41.836;23.480;2022-09-06T22:17:51;23.60;48.30
29479;DHT22;16437;41.836;23.480;2022-09-06T22:23:17;23.70;48.30
29479;DHT22;16437;41.836;23.480;2022-09-06T22:28:44;23.60;48.30
29479;DHT22;16437;41.836;23.480;2022-09-06T22:34:10;23.70;48.30
29479;DHT22;16437;41.836;23.480;2022-09-06T22:39:37;23.70;48.40
29479;DHT22;16437;41.836;23.480;2022-09-06T22:45:04;23.70;48.40
29479;DHT22;16437;41.836;23.480;2022-09-06T22:50:31;23.70;48.40
29479;DHT22;16437;41.836;23.480;2022-09-06T22:55:58;23.70;48.40
29479;DHT22;16437;41.836;23.480;2022-09-06T23:01:26;23.60;48.40
29479;DHT22;16437;41.836;23.480;2022-09-06T23:06:52;23.60;48.40
29479;DHT22;16437;41.836;23.480;2022-09-06T23:12:19;23.60;48.50
29479;DHT22;16437;41.836;23.480;2022-09-06T23:17:45;23.60;48.50
29479;DHT22;16437;41.836;23.480;2022-09-06T23:23:12;23.50;48.50
29479;DHT22;16437;41.836;23.480;2022-09-06T23:28:39;23.60;48.60
29479;DHT22;16437;41.836;23.480;2022-09-06T23:34:06;23.50;48.70
29479;DHT22;16437;41.836;23.480;2022-09-06T23:39:32;23.50;48.80
29479;DHT22;16437;41.836;23.480;2022-09-06T23:44:59;23.50;48.80
29479;DHT22;16437;41.836;23.480;2022-09-06T23:50:25;23.50;48.90
29479;DHT22;16437;41.836;23.480;2022-09-06T23:55:52;23.50;48.90
